createdAt,value
2022-08-23T00:01:43.502Z,16.00
2022-08-23T00:04:19.639Z,16.00
2022-08-23T00:06:49.052Z,16.00
2022-08-23T00:09:18.217Z,15.90
2022-08-23T00:11:55.222Z,15.90
2022-08-23T00:14:24.560Z,15.90
2022-08-23T00:16:57.101Z,15.90
2022-08-23T00:19:25.919Z,15.90
2022-08-23T00:21:56.084Z,15.90
2022-08-23T00:24:25.333Z,15.80
2022-08-23T00:27:25.066Z,15.80
2022-08-23T00:29:55.147Z,15.70
2022-08-23T00:32:25.566Z,15.80
2022-08-23T00:34:53.261Z,15.80
2022-08-23T00:37:22.214Z,15.80
2022-08-23T00:39:49.688Z,15.80
2022-08-23T00:43:03.189Z,15.90
2022-08-23T00:46:00.246Z,15.80
2022-08-23T00:48:28.005Z,15.80
2022-08-23T00:51:09.526Z,15.80
2022-08-23T00:53:42.776Z,15.80
2022-08-23T00:56:13.316Z,15.80
2022-08-23T00:58:42.055Z,15.80
2022-08-23T01:01:10.033Z,15.80
2022-08-23T01:03:41.131Z,15.80
2022-08-23T01:06:27.165Z,15.80
2022-08-23T01:08:59.819Z,15.80
2022-08-23T01:11:50.521Z,15.80
2022-08-23T01:14:41.534Z,15.80
2022-08-23T01:17:18.847Z,15.80
2022-08-23T01:19:59.772Z,15.70
2022-08-23T01:22:34.369Z,15.80
2022-08-23T01:25:08.935Z,15.80
2022-08-23T01:27:42.990Z,15.70
2022-08-23T01:30:16.950Z,15.80
2022-08-23T01:32:55.669Z,15.70
2022-08-23T01:35:39.065Z,15.70
2022-08-23T01:38:07.847Z,15.70
2022-08-23T01:40:36.727Z,15.70
2022-08-23T01:43:05.597Z,15.70
2022-08-23T01:45:33.732Z,15.70
2022-08-23T01:48:02.171Z,15.70
2022-08-23T01:50:30.562Z,15.70
2022-08-23T01:52:59.165Z,15.70
2022-08-23T01:55:28.240Z,15.70
2022-08-23T01:57:58.215Z,15.80
2022-08-23T02:00:30.808Z,15.80
2022-08-23T02:02:59.501Z,15.70
2022-08-23T02:05:28.039Z,15.80
2022-08-23T02:07:56.059Z,15.70
2022-08-23T02:10:23.616Z,15.70
2022-08-23T02:12:51.666Z,15.70
2022-08-23T02:15:23.777Z,15.70
2022-08-23T02:17:54.919Z,15.70
2022-08-23T02:20:22.341Z,15.70
2022-08-23T02:22:49.793Z,15.70
2022-08-23T02:25:17.250Z,15.80
2022-08-23T02:27:44.611Z,15.70
2022-08-23T02:30:13.922Z,15.80
2022-08-23T02:32:42.259Z,15.70
2022-08-23T02:35:10.824Z,15.70
2022-08-23T02:37:38.503Z,15.70
2022-08-23T02:40:06.970Z,15.70
2022-08-23T02:42:34.678Z,15.70
2022-08-23T02:45:02.784Z,15.70
2022-08-23T02:47:32.529Z,15.70
2022-08-23T02:50:13.538Z,15.70
2022-08-23T02:52:41.259Z,15.70
2022-08-23T02:55:09.430Z,15.70
2022-08-23T02:57:37.060Z,15.70
2022-08-23T06:48:17.027Z,16.10
2022-08-23T06:50:50.601Z,16.10
2022-08-23T06:54:02.876Z,16.10
2022-08-23T06:57:03.707Z,16.10
2022-08-23T06:59:50.456Z,16.10
2022-08-23T07:02:39.922Z,16.10
2022-08-23T07:05:47.578Z,16.20
2022-08-23T07:08:23.154Z,16.20
2022-08-23T07:10:57.749Z,16.30
2022-08-23T07:13:31.610Z,16.30
2022-08-23T07:16:05.665Z,16.30
2022-08-23T07:18:44.824Z,16.30
2022-08-23T07:21:16.361Z,16.40
2022-08-23T07:23:49.474Z,16.50
2022-08-23T07:26:23.137Z,16.40
2022-08-23T07:28:50.866Z,16.50
2022-08-23T07:31:32.010Z,16.60
2022-08-23T07:34:03.772Z,16.60
2022-08-23T07:36:45.267Z,16.50
2022-08-23T07:39:20.587Z,16.60
2022-08-23T07:41:50.289Z,16.60
2022-08-23T07:44:30.979Z,16.80
2022-08-23T07:47:02.693Z,16.70
2022-08-23T07:49:38.593Z,16.80
2022-08-23T07:52:16.175Z,16.80
2022-08-23T07:54:52.627Z,16.80
2022-08-23T07:57:49.242Z,16.80
2022-08-23T08:00:47.663Z,16.80
2022-08-23T08:03:42.564Z,16.90
2022-08-23T08:06:42.575Z,16.80
2022-08-23T08:09:13.665Z,16.90
2022-08-23T08:11:49.901Z,16.90
2022-08-23T08:14:23.754Z,16.90
2022-08-23T08:17:00.918Z,17.00
2022-08-23T08:19:56.484Z,17.10
2022-08-23T08:23:00.708Z,17.20
2022-08-23T08:25:41.380Z,17.40
2022-08-23T08:28:15.947Z,17.50
2022-08-23T08:30:50.689Z,17.50
2022-08-23T08:33:18.142Z,17.50
2022-08-23T08:35:58.950Z,17.40
2022-08-23T08:38:32.295Z,17.40
2022-08-23T08:41:41.132Z,17.40
2022-08-23T08:44:39.295Z,17.40
2022-08-23T08:47:53.950Z,17.30
2022-08-23T08:50:43.306Z,17.20
2022-08-23T08:53:25.694Z,17.10
2022-08-23T08:56:33.194Z,17.00
2022-08-23T08:59:52.542Z,17.00
2022-08-23T09:02:32.824Z,16.90
2022-08-23T09:05:27.738Z,16.80
2022-08-23T09:08:16.601Z,16.80
2022-08-23T09:11:25.559Z,16.70
2022-08-23T09:14:10.905Z,16.70
2022-08-23T09:17:13.456Z,16.50
2022-08-23T09:19:41.667Z,16.60
2022-08-23T09:22:17.857Z,16.60
2022-08-23T09:24:48.705Z,16.60
2022-08-23T09:27:25.949Z,16.60
2022-08-23T09:29:58.620Z,16.60
2022-08-23T09:32:41.705Z,16.60
2022-08-23T09:35:26.397Z,16.60
2022-08-23T09:38:26.317Z,16.50
2022-08-23T09:41:03.877Z,16.50
2022-08-23T09:43:44.097Z,16.40
2022-08-23T09:46:17.833Z,16.50
2022-08-23T09:48:46.949Z,16.50
2022-08-23T09:51:42.884Z,16.50
2022-08-23T09:54:29.296Z,16.50
2022-08-23T09:57:07.137Z,16.50
2022-08-23T09:59:52.344Z,16.50
2022-08-23T10:02:37.220Z,16.50
2022-08-23T10:05:42.224Z,16.50
2022-08-23T10:08:24.769Z,16.50
2022-08-23T10:11:04.678Z,16.50
2022-08-23T10:17:02.865Z,16.40
2022-08-23T10:20:00.471Z,16.50
2022-08-23T10:22:42.072Z,16.50
2022-08-23T10:25:51.272Z,16.50
2022-08-23T10:29:10.603Z,16.60
2022-08-23T10:32:13.155Z,16.60
2022-08-23T10:35:26.123Z,16.70
2022-08-23T10:38:26.177Z,16.70
2022-08-23T10:41:34.045Z,16.70
2022-08-23T10:44:15.552Z,16.80
2022-08-23T10:47:27.692Z,16.90
2022-08-23T10:50:03.672Z,16.90
2022-08-23T10:53:16.850Z,17.00
2022-08-23T10:56:03.243Z,17.10
2022-08-23T10:58:52.333Z,17.40
2022-08-23T11:01:51.187Z,17.70
2022-08-23T11:05:00.556Z,17.90
2022-08-23T11:07:50.634Z,18.20
2022-08-23T11:10:56.251Z,18.30
2022-08-23T11:13:35.523Z,18.40
2022-08-23T11:16:27.450Z,18.50
2022-08-23T11:18:56.647Z,18.60
2022-08-23T11:21:41.266Z,18.60
2022-08-23T11:24:14.102Z,18.80
2022-08-23T11:26:45.140Z,19.10
2022-08-23T11:29:33.766Z,19.40
2022-08-23T11:32:40.026Z,19.60
2022-08-23T11:35:43.464Z,19.40
2022-08-23T11:38:22.682Z,19.40
2022-08-23T11:40:57.894Z,19.30
2022-08-23T11:43:35.405Z,19.30
2022-08-23T11:46:27.851Z,19.30
2022-08-23T11:50:03.020Z,19.20
2022-08-23T11:52:57.768Z,19.10
2022-08-23T11:56:03.465Z,18.90
2022-08-23T11:58:56.480Z,18.90
2022-08-23T12:01:43.340Z,18.90
2022-08-23T12:04:33.314Z,18.80
2022-08-23T12:07:04.648Z,18.80
2022-08-23T12:09:34.691Z,18.80
2022-08-23T12:12:28.826Z,18.70
2022-08-23T12:15:00.721Z,18.70
2022-08-23T12:17:34.173Z,18.80
2022-08-23T12:20:16.952Z,18.70
2022-08-23T12:23:13.790Z,18.70
2022-08-23T12:25:43.164Z,18.60
2022-08-23T12:28:41.504Z,18.70
2022-08-23T12:32:06.233Z,18.80
2022-08-23T12:34:55.166Z,18.80
2022-08-23T12:37:59.265Z,19.00
2022-08-23T12:40:50.050Z,19.10
2022-08-23T12:43:28.927Z,19.30
2022-08-23T12:46:06.860Z,19.40
2022-08-23T12:48:46.689Z,19.60
2022-08-23T12:51:14.171Z,19.70
2022-08-23T12:53:45.624Z,19.90
2022-08-23T12:56:19.271Z,20.00
2022-08-23T12:58:54.702Z,20.00
2022-08-23T13:01:24.039Z,20.00
2022-08-23T13:04:10.874Z,19.90
2022-08-23T13:06:49.713Z,19.90
2022-08-23T13:09:33.418Z,19.90
2022-08-23T13:12:02.747Z,20.10
2022-08-23T13:14:45.045Z,20.10
2022-08-23T13:17:34.133Z,19.90
2022-08-23T13:20:04.703Z,19.90
2022-08-23T13:22:38.462Z,20.10
2022-08-23T13:25:31.333Z,20.20
2022-08-23T13:28:05.392Z,20.30
2022-08-23T13:30:37.395Z,20.50
2022-08-23T13:33:21.870Z,20.50
2022-08-23T13:36:05.391Z,20.50
2022-08-23T13:38:43.291Z,20.50
2022-08-23T13:41:27.586Z,20.60
2022-08-23T13:43:58.685Z,20.60
2022-08-23T13:46:32.180Z,20.60
2022-08-23T13:49:24.775Z,20.80
2022-08-23T13:54:54.276Z,20.60
2022-08-23T13:57:29.963Z,20.40
2022-08-23T14:00:03.218Z,20.30
2022-08-23T14:03:00.818Z,20.10
2022-08-23T14:05:30.393Z,19.90
2022-08-23T14:08:04.019Z,19.70
2022-08-23T14:10:33.202Z,19.50
2022-08-23T14:13:03.129Z,19.40
2022-08-23T14:18:28.817Z,19.20
2022-08-23T14:20:58.193Z,19.20
2022-08-23T14:23:26.830Z,19.30
2022-08-23T14:26:00.458Z,19.20
2022-08-23T14:28:30.213Z,19.20
2022-08-23T14:30:59.742Z,19.20
2022-08-23T14:33:28.215Z,19.20
2022-08-23T14:35:57.278Z,19.20
2022-08-23T14:38:26.418Z,19.20
2022-08-23T14:40:59.077Z,19.10
2022-08-23T14:43:28.027Z,19.00
2022-08-23T14:46:00.793Z,19.00
2022-08-23T14:48:31.046Z,18.90
2022-08-23T14:51:00.214Z,18.90
2022-08-23T14:53:34.138Z,18.90
2022-08-23T14:56:20.302Z,18.90
2022-08-23T14:58:51.310Z,18.90
2022-08-23T15:01:22.148Z,18.90
2022-08-23T15:03:53.671Z,18.90
2022-08-23T15:06:23.533Z,18.90
2022-08-23T15:08:51.304Z,18.90
2022-08-23T15:14:19.099Z,19.00
2022-08-23T15:16:51.803Z,19.00
2022-08-23T15:19:23.652Z,19.00
2022-08-23T15:21:54.546Z,18.90
2022-08-23T15:27:10.593Z,18.90
2022-08-23T15:29:44.846Z,19.00
2022-08-23T15:32:15.740Z,18.90
2022-08-23T15:34:50.566Z,19.00
2022-08-23T15:37:24.783Z,19.00
2022-08-23T15:39:56.192Z,19.10
2022-08-23T15:42:27.522Z,19.10
2022-08-23T15:44:57.725Z,19.10
2022-08-23T15:47:30.964Z,19.00
2022-08-23T15:49:59.991Z,18.90
2022-08-23T15:52:28.578Z,18.90
2022-08-23T15:54:56.169Z,18.80
2022-08-23T15:57:27.850Z,18.80
2022-08-23T16:00:00.671Z,18.90
2022-08-23T16:02:45.698Z,18.90
2022-08-23T16:08:04.746Z,18.90
2022-08-23T16:10:33.949Z,19.00
2022-08-23T16:13:03.996Z,18.90
2022-08-23T16:15:32.776Z,18.80
2022-08-23T16:18:00.478Z,18.70
2022-08-23T16:20:28.969Z,18.70
2022-08-23T16:22:57.873Z,18.70
2022-08-23T16:25:27.352Z,18.70
2022-08-23T16:27:57.042Z,18.70
2022-08-23T16:30:25.717Z,18.60
2022-08-23T16:32:55.091Z,18.60
2022-08-23T16:35:27.467Z,18.60
2022-08-23T16:37:56.249Z,18.50
2022-08-23T16:40:27.366Z,18.50
2022-08-23T16:42:56.438Z,18.40
2022-08-23T16:45:25.919Z,18.40
2022-08-23T16:47:54.109Z,18.40
2022-08-23T16:50:22.641Z,18.40
2022-08-23T16:52:50.829Z,18.40
2022-08-23T16:55:18.351Z,18.30
2022-08-23T16:57:45.977Z,18.30
2022-08-23T17:00:14.233Z,18.30
2022-08-23T17:02:44.010Z,18.20
2022-08-23T17:05:15.468Z,18.20
2022-08-23T17:07:43.216Z,18.20
2022-08-23T17:10:13.236Z,18.20
2022-08-23T17:12:47.131Z,18.20
2022-08-23T17:15:20.602Z,18.20
2022-08-23T17:17:49.109Z,18.20
2022-08-23T17:20:20.193Z,18.10
2022-08-23T17:22:49.334Z,18.10
2022-08-23T17:25:17.296Z,18.10
2022-08-23T17:27:46.506Z,18.10
2022-08-23T17:30:16.905Z,18.10
2022-08-23T17:32:47.551Z,18.10
2022-08-23T17:35:17.503Z,18.00
2022-08-23T17:37:45.481Z,18.00
2022-08-23T17:40:17.082Z,18.00
2022-08-23T17:42:49.945Z,18.00
2022-08-23T17:45:18.518Z,17.90
2022-08-23T17:47:47.862Z,17.90
2022-08-23T17:50:17.163Z,17.90
2022-08-23T17:52:45.215Z,17.90
2022-08-23T17:55:17.193Z,17.90
2022-08-23T17:57:46.971Z,17.80
2022-08-23T18:00:17.777Z,17.80
2022-08-23T18:02:45.197Z,17.80
2022-08-23T18:05:14.713Z,17.80
2022-08-23T18:07:45.563Z,17.80
2022-08-23T18:10:16.384Z,17.80
2022-08-23T18:12:48.206Z,17.80
2022-08-23T18:15:20.772Z,17.90
2022-08-23T18:20:35.379Z,17.90
2022-08-23T18:23:10.006Z,18.00
2022-08-23T18:25:52.432Z,18.00
2022-08-23T18:28:24.825Z,18.00
2022-08-23T18:31:03.342Z,18.00
2022-08-23T18:33:47.208Z,18.00
2022-08-23T18:36:16.601Z,17.90
2022-08-23T18:38:46.660Z,17.90
2022-08-23T18:41:18.090Z,17.90
2022-08-23T18:43:47.060Z,18.00
2022-08-23T18:46:16.447Z,18.00
2022-08-23T18:48:53.310Z,17.90
2022-08-23T18:51:24.716Z,18.00
2022-08-23T18:53:54.988Z,18.00
2022-08-23T18:56:24.270Z,18.00
2022-08-23T18:59:01.800Z,18.00
2022-08-23T19:01:38.079Z,18.10
2022-08-23T19:04:10.801Z,18.00
2022-08-23T19:06:43.231Z,18.00
2022-08-23T19:09:14.029Z,18.00
2022-08-23T19:11:43.111Z,18.10
2022-08-23T19:14:15.896Z,18.10
2022-08-23T19:16:48.354Z,18.10
2022-08-23T19:19:21.747Z,18.10
2022-08-23T19:21:50.681Z,18.10
2022-08-23T19:24:23.790Z,18.10
2022-08-23T19:26:56.179Z,18.00
2022-08-23T19:29:27.416Z,18.00
2022-08-23T19:31:56.656Z,18.00
2022-08-23T19:37:20.621Z,18.00
2022-08-23T19:39:52.892Z,18.00
2022-08-23T19:45:08.366Z,18.00
2022-08-23T19:47:39.514Z,18.00
2022-08-23T19:50:10.441Z,18.00
2022-08-23T19:52:42.770Z,18.00
2022-08-23T19:55:14.447Z,17.90
2022-08-23T19:57:44.705Z,17.90
2022-08-23T20:00:19.805Z,17.90
2022-08-23T20:02:49.233Z,17.90
2022-08-23T20:05:18.338Z,17.90
2022-08-23T20:07:47.618Z,17.90
2022-08-23T20:10:15.715Z,17.90
2022-08-23T20:12:48.935Z,17.90
2022-08-23T20:15:21.003Z,17.90
2022-08-23T20:17:50.151Z,17.90
2022-08-23T20:20:20.619Z,17.90
2022-08-23T20:23:10.192Z,17.90
2022-08-23T20:28:26.155Z,17.90
2022-08-23T20:30:55.703Z,17.90
2022-08-23T20:33:27.905Z,17.80
2022-08-23T20:35:55.388Z,17.80
2022-08-23T20:38:32.835Z,17.80
2022-08-23T20:41:01.618Z,17.90
2022-08-23T20:43:35.102Z,17.90
2022-08-23T20:46:07.474Z,17.90
2022-08-23T20:48:38.730Z,17.90
2022-08-23T20:51:08.242Z,17.90
2022-08-23T20:53:39.915Z,17.90
2022-08-23T20:56:10.413Z,17.90
2022-08-23T20:58:42.482Z,17.90
2022-08-23T21:01:11.362Z,17.90
2022-08-23T21:03:42.898Z,17.90
2022-08-23T21:06:19.858Z,17.90
2022-08-23T21:08:54.601Z,17.90
2022-08-23T21:11:26.950Z,17.90
2022-08-23T21:13:59.239Z,17.90
2022-08-23T21:16:28.393Z,17.90
2022-08-23T21:18:59.547Z,17.90
2022-08-23T21:21:30.245Z,17.90
2022-08-23T21:23:58.230Z,17.90
2022-08-23T21:26:29.439Z,17.90
2022-08-23T21:28:58.461Z,17.90
2022-08-23T21:31:29.189Z,17.90
2022-08-23T21:34:00.609Z,17.90
2022-08-23T21:36:28.255Z,17.90
2022-08-23T21:38:55.842Z,17.90
2022-08-23T21:41:43.392Z,17.90
2022-08-23T21:44:15.200Z,17.90
2022-08-23T21:46:43.429Z,17.90
2022-08-23T21:49:20.577Z,17.90
2022-08-23T21:51:49.538Z,17.90
2022-08-23T21:54:18.734Z,17.90
2022-08-23T21:56:47.497Z,17.90
2022-08-23T21:59:17.186Z,17.90
2022-08-23T22:01:49.016Z,17.90
2022-08-23T22:04:18.327Z,17.90
2022-08-23T22:06:47.763Z,17.80
2022-08-23T22:09:20.463Z,17.90
2022-08-23T22:11:56.260Z,17.90
2022-08-23T22:14:26.308Z,18.00
2022-08-23T22:17:00.950Z,17.90
2022-08-23T22:19:30.127Z,18.00
2022-08-23T22:22:01.171Z,18.00
2022-08-23T22:24:30.212Z,17.90
2022-08-23T22:26:58.211Z,17.90
2022-08-23T22:29:30.597Z,17.90
2022-08-23T22:31:59.473Z,17.90
2022-08-23T22:34:29.736Z,17.90
2022-08-23T22:36:58.479Z,17.90
2022-08-23T22:39:29.721Z,17.90
2022-08-23T22:41:58.329Z,17.90
2022-08-23T22:44:29.041Z,17.90
2022-08-23T22:47:00.958Z,17.90
2022-08-23T22:49:31.020Z,17.90
2022-08-23T22:52:00.678Z,17.90
2022-08-23T22:54:29.874Z,17.90
2022-08-23T22:56:58.657Z,17.90
2022-08-23T22:59:32.886Z,17.90
2022-08-23T23:02:04.656Z,17.90
2022-08-23T23:04:35.583Z,17.90
2022-08-23T23:09:49.249Z,17.80
2022-08-23T23:12:26.641Z,17.80
2022-08-23T23:14:57.759Z,17.80
2022-08-23T23:17:27.417Z,17.80
2022-08-23T23:20:14.639Z,17.80
2022-08-23T23:22:44.765Z,17.80
2022-08-23T23:25:14.325Z,17.80
2022-08-23T23:27:46.276Z,17.80
2022-08-23T23:30:17.677Z,17.80
2022-08-23T23:32:47.473Z,17.80
2022-08-23T23:35:17.437Z,17.80
2022-08-23T23:37:49.682Z,17.80
2022-08-23T23:40:19.162Z,17.80
2022-08-23T23:42:46.948Z,17.90
2022-08-23T23:45:19.055Z,17.90
2022-08-23T23:47:47.321Z,17.90
2022-08-23T23:50:16.535Z,17.90
2022-08-23T23:52:47.756Z,17.90
2022-08-23T23:55:22.025Z,17.90
2022-08-23T23:57:51.521Z,17.80
